Time;durP1;ratioP1;P1;durP2;ratioP2;P2;SDS_P1;SDS_P2;PMS_P1;PMS_P2;Temp;Humidity;BMP_temperature;BMP_pressure;BME280_temperature;BME280_humidity;BME280_pressure;Samples;Min_cycle;Max_cycle;Signal;HPM_P1;HPM_P2
2021/01/17 00:01:20;;;;;;;27.20;12.02;;;0.70;99.90;;;;;;5064618;28;20056;-63
2021/01/17 00:03:51;;;;;;;25.50;10.05;;;0.70;99.90;;;;;;5073925;28;20581;-63
2021/01/17 00:06:23;;;;;;;26.83;12.63;;;0.70;99.90;;;;;;5041917;28;20048;-63
2021/01/17 00:08:51;;;;;;;24.13;10.25;;;0.70;99.90;;;;;;5068942;28;20146;-63
2021/01/17 00:11:23;;;;;;;21.10;9.25;;;0.70;99.90;;;;;;5059930;28;20056;-63
2021/01/17 00:13:57;;;;;;;21.48;9.93;;;0.70;99.90;;;;;;5073738;28;20067;-63
2021/01/17 00:16:39;;;;;;;21.05;9.63;;;0.80;99.90;;;;;;5056504;28;20045;-63
2021/01/17 00:19:16;;;;;;;28.08;10.63;;;0.80;99.90;;;;;;5055377;28;20048;-63
2021/01/17 00:22:05;;;;;;;28.13;11.70;;;0.80;99.90;;;;;;5073106;28;20079;-63
2021/01/17 00:24:31;;;;;;;28.25;11.85;;;0.80;99.90;;;;;;5055596;28;20499;-63
2021/01/17 00:26:57;;;;;;;25.60;11.50;;;0.80;99.90;;;;;;5075176;28;20040;-63
2021/01/17 00:29:26;;;;;;;24.67;10.70;;;0.70;99.90;;;;;;5051363;28;20045;-63
2021/01/17 00:32:16;;;;;;;23.83;10.57;;;0.80;99.90;;;;;;5043224;28;20049;-63
2021/01/17 00:34:44;;;;;;;25.08;11.35;;;0.70;99.90;;;;;;5056037;28;20069;-63
2021/01/17 00:41:28;;;;;;;26.15;11.00;;;0.80;99.90;;;;;;5063758;28;20048;-63
2021/01/17 00:43:54;;;;;;;24.33;10.52;;;0.80;99.90;;;;;;5074556;28;20115;-63
2021/01/17 00:46:24;;;;;;;25.95;10.93;;;0.80;99.90;;;;;;5066275;28;20125;-64
2021/01/17 00:49:27;;;;;;;26.38;11.73;;;0.80;99.90;;;;;;5074853;28;20124;-64
2021/01/17 00:51:55;;;;;;;26.73;10.45;;;0.70;99.90;;;;;;5074687;28;20407;-63
2021/01/17 00:58:55;;;;;;;26.15;12.25;;;0.70;99.90;;;;;;5073411;28;20085;-63
2021/01/17 01:01:26;;;;;;;19.75;8.73;;;0.70;99.90;;;;;;5057009;28;20480;-63
2021/01/17 01:11:29;;;;;;;25.90;11.00;;;0.70;99.90;;;;;;5068627;28;20108;-63
2021/01/17 01:14:01;;;;;;;27.75;11.80;;;0.80;99.90;;;;;;5065480;28;20123;-63
2021/01/17 01:16:28;;;;;;;28.73;12.60;;;0.80;99.90;;;;;;5065785;28;20391;-63
2021/01/17 01:19:00;;;;;;;32.08;14.30;;;0.80;99.90;;;;;;5058599;28;20040;-63
2021/01/17 01:21:31;;;;;;;25.35;11.40;;;0.70;99.90;;;;;;5054201;28;20051;-63
2021/01/17 01:24:03;;;;;;;28.77;13.40;;;0.70;99.90;;;;;;5069079;28;20040;-64
2021/01/17 01:34:04;;;;;;;32.42;13.32;;;0.70;99.90;;;;;;5035756;28;20039;-63
2021/01/17 01:44:05;;;;;;;23.33;10.13;;;0.80;99.90;;;;;;5036340;28;20048;-63
2021/01/17 01:46:36;;;;;;;22.65;10.25;;;0.80;99.90;;;;;;5034190;28;20051;-63
2021/01/17 01:49:03;;;;;;;28.67;11.90;;;0.90;99.90;;;;;;5057892;28;20122;-63
2021/01/17 01:51:33;;;;;;;24.70;11.90;;;0.90;99.90;;;;;;5073773;28;20045;-63
2021/01/17 01:54:09;;;;;;;28.83;12.32;;;0.90;99.90;;;;;;5061672;28;20044;-63
2021/01/17 02:16:47;;;;;;;34.63;15.25;;;0.90;99.90;;;;;;5043538;28;20443;-63
2021/01/17 02:23:18;;;;;;;34.85;14.18;;;0.80;99.90;;;;;;5038339;28;20103;-63
2021/01/17 02:25:50;;;;;;;32.17;13.80;;;0.80;99.90;;;;;;5025674;28;20116;-63
2021/01/17 02:32:22;;;;;;;32.83;14.75;;;0.80;99.90;;;;;;5026875;28;20040;-63
2021/01/17 02:34:54;;;;;;;30.52;13.02;;;0.80;99.90;;;;;;5050734;28;20096;-63
2021/01/17 02:37:58;;;;;;;33.25;14.40;;;0.80;99.90;;;;;;5033474;28;20049;-63
2021/01/17 02:40:42;;;;;;;39.13;15.38;;;0.80;99.90;;;;;;5056216;28;20047;-63
2021/01/17 02:43:23;;;;;;;35.40;13.82;;;0.80;99.90;;;;;;5026796;28;20059;-63
2021/01/17 02:49:48;;;;;;;32.65;14.65;;;0.80;99.90;;;;;;5047414;28;20079;-63
2021/01/17 02:55:19;;;;;;;36.53;13.52;;;0.80;99.90;;;;;;5019527;28;19948;-63
2021/01/17 02:57:55;;;;;;;38.78;16.88;;;0.80;99.90;;;;;;5037939;28;20448;-63
2021/01/17 03:00:25;;;;;;;38.72;15.50;;;0.80;99.90;;;;;;5025901;28;20033;-63
2021/01/17 03:02:55;;;;;;;32.15;13.55;;;0.80;99.90;;;;;;5054584;28;20061;-63
2021/01/17 03:10:06;;;;;;;29.50;13.60;;;0.80;99.90;;;;;;5020952;28;20113;-63
2021/01/17 03:12:37;;;;;;;32.95;13.48;;;0.80;99.90;;;;;;5053971;28;20091;-63
2021/01/17 03:32:50;;;;;;;31.77;14.20;;;0.90;99.90;;;;;;5024045;28;20049;-63
2021/01/17 03:35:22;;;;;;;27.70;13.10;;;0.80;99.90;;;;;;5024654;28;20067;-63
2021/01/17 03:37:51;;;;;;;40.00;16.88;;;0.80;99.90;;;;;;5045544;28;20457;-63
2021/01/17 03:40:18;;;;;;;37.47;16.27;;;0.80;99.90;;;;;;5020251;28;20128;-63
2021/01/17 03:42:48;;;;;;;31.60;14.55;;;0.80;99.90;;;;;;5039736;28;20037;-63
2021/01/17 03:45:21;;;;;;;31.55;13.57;;;0.80;99.90;;;;;;5024047;28;20045;-63
2021/01/17 03:47:49;;;;;;;44.88;19.67;;;0.90;99.90;;;;;;5024489;28;20057;-63
2021/01/17 03:50:23;;;;;;;35.67;15.10;;;0.80;99.90;;;;;;5018715;28;20047;-63
2021/01/17 03:52:49;;;;;;;;;;;0.90;99.90;;;;;;5022735;28;20045;-63
2021/01/17 03:59:48;;;;;;;33.67;15.13;;;0.80;99.90;;;;;;5028753;28;20535;-63
2021/01/17 04:02:51;;;;;;;33.33;14.35;;;0.90;99.90;;;;;;5046298;28;20037;-63
2021/01/17 04:10:20;;;;;;;37.70;15.20;;;0.90;99.90;;;;;;5060868;28;20420;-63
2021/01/17 04:12:48;;;;;;;29.25;12.07;;;0.90;99.90;;;;;;5057413;28;20416;-63
2021/01/17 04:15:19;;;;;;;35.97;15.15;;;0.90;99.90;;;;;;5055475;28;20041;-63
2021/01/17 04:17:53;;;;;;;36.40;15.32;;;0.90;99.90;;;;;;5054201;28;20041;-63
2021/01/17 04:20:46;;;;;;;33.40;13.38;;;0.90;99.90;;;;;;5063755;28;20135;-63
2021/01/17 04:27:13;;;;;;;32.60;13.30;;;0.90;99.90;;;;;;5057242;28;20032;-63
2021/01/17 04:29:44;;;;;;;34.58;14.43;;;0.90;99.90;;;;;;5068366;28;20052;-63
2021/01/17 04:32:40;;;;;;;34.20;14.25;;;0.90;99.90;;;;;;5042982;28;20505;-63
2021/01/17 04:35:13;;;;;;;34.85;14.05;;;0.90;99.90;;;;;;5042327;28;20442;-63
2021/01/17 04:37:48;;;;;;;36.45;13.52;;;1.00;99.90;;;;;;5055841;28;20061;-63
2021/01/17 04:47:44;;;;;;;28.55;11.48;;;0.90;99.90;;;;;;5075017;28;20102;-63
2021/01/17 04:50:16;;;;;;;33.65;12.68;;;0.90;99.90;;;;;;5055173;28;20045;-63
2021/01/17 05:00:01;;;;;;;31.45;12.15;;;1.00;99.90;;;;;;5066305;28;20049;-63
2021/01/17 05:07:10;;;;;;;30.73;13.02;;;0.90;99.90;;;;;;5040173;28;20112;-63
2021/01/17 05:17:36;;;;;;;31.88;11.35;;;0.90;99.90;;;;;;5035798;28;20489;-64
2021/01/17 05:20:17;;;;;;;25.58;10.80;;;1.00;99.90;;;;;;5049049;28;20033;-63
2021/01/17 05:27:16;;;;;;;23.17;10.68;;;1.00;99.90;;;;;;5042265;28;20494;-63
2021/01/17 05:29:49;;;;;;;31.98;12.73;;;1.00;99.90;;;;;;5054201;28;20091;-64
2021/01/17 05:32:16;;;;;;;32.93;13.47;;;1.00;99.90;;;;;;5054118;28;20049;-63
2021/01/17 05:34:54;;;;;;;30.42;12.43;;;1.10;99.90;;;;;;5036422;28;20042;-64
2021/01/17 05:37:20;;;;;;;32.72;13.18;;;1.00;99.90;;;;;;5046403;28;20435;-63
2021/01/17 05:40:21;;;;;;;34.70;14.30;;;1.00;99.90;;;;;;5050893;28;20049;-64
2021/01/17 05:42:52;;;;;;;26.75;11.57;;;1.00;99.90;;;;;;5049671;28;20041;-63
2021/01/17 05:45:31;;;;;;;29.13;11.90;;;1.00;99.90;;;;;;5035126;28;20108;-63
2021/01/17 05:52:16;;;;;;;24.60;11.05;;;1.00;99.90;;;;;;5026603;28;20099;-63
2021/01/17 06:02:23;;;;;;;28.58;12.13;;;1.10;99.90;;;;;;5027688;28;20038;-63
2021/01/17 06:04:57;;;;;;;27.98;12.57;;;1.10;99.90;;;;;;5029127;28;20056;-64
2021/01/17 06:07:32;;;;;;;27.88;11.23;;;1.10;99.90;;;;;;5053397;28;20036;-64
2021/01/17 06:24:43;;;;;;;26.92;10.57;;;1.10;99.90;;;;;;5037707;28;20060;-64
2021/01/17 06:27:21;;;;;;;28.42;11.00;;;1.10;99.90;;;;;;5034243;28;20494;-64
2021/01/17 06:37:13;;;;;;;25.15;10.82;;;1.10;99.90;;;;;;5039687;28;20047;-63
2021/01/17 06:39:47;;;;;;;27.30;11.13;;;1.10;99.90;;;;;;5039558;28;20042;-64
2021/01/17 06:42:15;;;;;;;27.05;12.05;;;1.10;99.90;;;;;;5013441;28;20137;-64
2021/01/17 06:44:43;;;;;;;28.27;10.85;;;1.10;99.90;;;;;;5047749;28;20041;-64
2021/01/17 06:47:22;;;;;;;21.23;10.60;;;1.10;99.90;;;;;;5042429;28;20534;-64
2021/01/17 06:49:51;;;;;;;31.65;12.65;;;1.20;99.90;;;;;;5026192;28;20381;-65
2021/01/17 06:52:49;;;;;;;29.20;12.13;;;1.20;99.90;;;;;;5045836;28;20060;-64
2021/01/17 06:55:21;;;;;;;29.08;12.02;;;1.10;99.90;;;;;;5022477;28;20116;-64
2021/01/17 07:02:19;;;;;;;33.00;13.38;;;1.20;99.90;;;;;;5052737;28;20067;-64
2021/01/17 07:05:00;;;;;;;35.78;13.98;;;1.20;99.90;;;;;;5052969;28;20124;-64
2021/01/17 07:15:27;;;;;;;22.40;9.68;;;1.20;99.90;;;;;;5015119;28;20060;-64
2021/01/17 07:22:12;;;;;;;30.58;10.18;;;1.10;99.90;;;;;;5017592;28;20455;-64
2021/01/17 07:24:48;;;;;;;23.73;10.13;;;1.20;99.90;;;;;;5040571;28;20046;-63
2021/01/17 07:27:16;;;;;;;26.73;9.82;;;1.20;99.90;;;;;;5046926;28;20114;-64
2021/01/17 07:29:49;;;;;;;25.13;10.73;;;1.20;99.90;;;;;;5047672;28;20041;-64
2021/01/17 07:54:57;;;;;;;21.85;8.57;;;1.10;99.90;;;;;;5038559;28;20068;-63
2021/01/17 07:57:24;;;;;;;32.38;11.95;;;1.20;99.90;;;;;;5044108;28;20045;-63
2021/01/17 07:59:52;;;;;;;24.83;10.05;;;1.10;99.90;;;;;;5035783;28;20459;-63
2021/01/17 08:02:52;;;;;;;25.48;9.75;;;1.10;99.90;;;;;;5034803;28;20081;-63
2021/01/17 08:05:18;;;;;;;27.63;11.02;;;1.20;99.90;;;;;;5055644;28;20385;-63
2021/01/17 08:22:26;;;;;;;22.98;9.52;;;1.30;99.90;;;;;;5074244;28;20387;-64
2021/01/17 08:25:06;;;;;;;23.65;10.02;;;1.20;99.90;;;;;;5035529;28;20041;-63
2021/01/17 08:27:52;;;;;;;19.50;9.55;;;1.30;99.90;;;;;;5056686;28;20044;-63
2021/01/17 08:34:49;;;;;;;25.30;9.93;;;1.30;99.90;;;;;;5065024;28;20074;-64
2021/01/17 08:37:34;;;;;;;28.60;11.50;;;1.30;99.90;;;;;;5035064;28;20119;-64
2021/01/17 08:47:22;;;;;;;21.98;8.95;;;1.30;99.90;;;;;;5034894;28;20036;-63
2021/01/17 08:49:57;;;;;;;19.02;8.10;;;1.30;99.90;;;;;;5035028;28;20068;-63
2021/01/17 08:53:06;;;;;;;25.88;9.43;;;1.30;99.90;;;;;;5035033;28;20046;-64
2021/01/17 08:56:09;;;;;;;25.50;11.18;;;1.40;99.90;;;;;;5043120;28;20040;-64
2021/01/17 09:02:21;;;;;;;22.45;8.40;;;1.30;99.90;;;;;;5058527;28;20048;-63
2021/01/17 09:05:18;;;;;;;21.83;9.05;;;1.40;99.90;;;;;;5070900;28;20067;-64
2021/01/17 09:15:54;;;;;;;16.50;7.35;;;1.30;99.90;;;;;;5047779;28;20039;-63
2021/01/17 09:22:12;;;;;;;17.25;7.15;;;1.40;99.90;;;;;;5057805;28;20051;-64
2021/01/17 09:24:57;;;;;;;20.05;9.52;;;1.40;99.90;;;;;;5063748;28;20075;-64
2021/01/17 09:34:53;;;;;;;15.02;6.88;;;1.40;99.90;;;;;;5053838;28;20052;-64
2021/01/17 09:37:52;;;;;;;17.92;7.10;;;1.50;99.90;;;;;;5069764;28;20044;-64
2021/01/17 09:40:40;;;;;;;15.35;6.43;;;1.50;99.90;;;;;;5021946;28;20518;-63
2021/01/17 09:47:26;;;;;;;20.70;8.63;;;1.60;99.90;;;;;;5064305;28;20039;-64
2021/01/17 09:50:30;;;;;;;22.52;8.52;;;1.60;99.90;;;;;;5070198;28;20053;-64
2021/01/17 09:53:27;;;;;;;21.33;8.20;;;1.60;99.90;;;;;;5039553;28;20041;-64
2021/01/17 10:00:00;;;;;;;20.77;8.25;;;1.60;99.90;;;;;;5063585;28;20035;-63
2021/01/17 10:02:32;;;;;;;23.92;9.70;;;1.60;99.90;;;;;;5065408;28;20093;-64
2021/01/17 10:04:58;;;;;;;23.13;8.13;;;1.60;99.90;;;;;;5070723;28;20399;-63
2021/01/17 10:07:25;;;;;;;23.65;9.35;;;1.70;99.90;;;;;;5054279;28;20060;-63
2021/01/17 10:09:58;;;;;;;31.40;9.88;;;1.60;99.90;;;;;;5016069;28;20099;-64
2021/01/17 10:12:26;;;;;;;23.85;9.55;;;1.60;99.90;;;;;;5057369;28;20063;-64
2021/01/17 10:14:55;;;;;;;22.08;9.35;;;1.60;99.90;;;;;;5048715;28;20041;-63
2021/01/17 10:17:30;;;;;;;24.38;9.93;;;1.60;99.90;;;;;;5044954;28;20472;-63
2021/01/17 10:19:56;;;;;;;27.25;10.45;;;1.70;99.90;;;;;;5061623;28;20051;-63
2021/01/17 10:22:25;;;;;;;18.05;7.80;;;1.60;99.90;;;;;;5072503;28;20040;-63
2021/01/17 10:24:57;;;;;;;20.35;8.38;;;1.70;99.90;;;;;;5072203;28;20123;-63
2021/01/17 10:27:29;;;;;;;21.73;7.53;;;1.70;99.90;;;;;;5073417;28;20041;-63
2021/01/17 10:30:00;;;;;;;20.10;7.78;;;1.70;99.90;;;;;;5073586;28;20036;-63
2021/01/17 10:33:00;;;;;;;;;;;1.70;99.90;;;;;;5050138;28;20472;-64
2021/01/17 10:39:58;;;;;;;16.20;6.63;;;1.80;99.90;;;;;;5066548;28;20446;-63
2021/01/17 10:42:33;;;;;;;23.02;7.22;;;1.80;99.90;;;;;;5064584;28;20049;-64
2021/01/17 10:45:18;;;;;;;15.50;6.32;;;1.80;99.90;;;;;;5073091;28;20040;-63
2021/01/17 10:48:05;;;;;;;27.88;10.82;;;1.80;99.90;;;;;;5035645;28;20042;-64
2021/01/17 10:55:08;;;;;;;13.73;5.35;;;1.80;99.90;;;;;;5071895;28;20093;-65
2021/01/17 11:05:25;;;;;;;21.42;6.93;;;1.90;99.90;;;;;;5056411;28;20052;-63
2021/01/17 11:08:13;;;;;;;23.02;6.50;;;2.00;99.90;;;;;;5070208;28;20712;-65
2021/01/17 11:15:16;;;;;;;18.50;7.10;;;2.00;99.90;;;;;;5067518;28;20040;-64
2021/01/17 11:18:20;;;;;;;23.55;7.28;;;2.10;99.90;;;;;;5058370;28;20043;-65
2021/01/17 11:25:07;;;;;;;15.80;6.43;;;2.10;99.90;;;;;;5076147;28;20039;-65
2021/01/17 11:27:47;;;;;;;25.52;8.10;;;2.20;99.90;;;;;;5076543;28;20036;-65
2021/01/17 11:30:55;;;;;;;20.83;8.13;;;2.20;99.90;;;;;;5076276;28;20093;-65
2021/01/17 11:33:28;;;;;;;18.55;7.07;;;2.20;99.90;;;;;;5046864;28;20091;-64
2021/01/17 11:40:15;;;;;;;27.27;8.73;;;2.30;99.90;;;;;;5054749;28;20028;-63
2021/01/17 11:42:43;;;;;;;20.50;7.35;;;2.30;99.90;;;;;;5070729;28;20090;-63
2021/01/17 11:45:44;;;;;;;19.90;7.22;;;2.30;99.90;;;;;;5076068;28;20055;-63
2021/01/17 11:48:39;;;;;;;19.98;6.55;;;2.30;99.90;;;;;;5067402;28;20036;-63
2021/01/17 11:51:23;;;;;;;16.55;6.50;;;2.40;99.90;;;;;;5064249;28;20059;-63
2021/01/17 11:57:46;;;;;;;17.45;6.10;;;2.40;99.90;;;;;;5056979;28;20128;-63
2021/01/17 12:00:22;;;;;;;17.52;6.53;;;2.50;99.90;;;;;;5035872;28;20381;-63
2021/01/17 12:03:10;;;;;;;16.83;6.60;;;2.60;99.90;;;;;;5063743;28;20392;-63
2021/01/17 12:06:01;;;;;;;18.77;6.03;;;2.60;99.90;;;;;;5075829;28;20052;-63
2021/01/17 12:08:52;;;;;;;16.25;6.85;;;2.70;99.90;;;;;;5043051;28;20048;-63
2021/01/17 12:11:45;;;;;;;15.98;6.15;;;2.70;99.90;;;;;;5037129;28;20057;-62
2021/01/17 12:17:46;;;;;;;12.95;5.90;;;2.80;99.90;;;;;;5032339;28;20046;-63
2021/01/17 12:20:20;;;;;;;14.82;6.53;;;2.80;99.90;;;;;;5035210;28;20034;-63
2021/01/17 12:23:23;;;;;;;18.67;7.22;;;2.70;99.90;;;;;;5035301;28;20056;-63
2021/01/17 12:26:04;;;;;;;19.48;7.28;;;2.70;99.90;;;;;;5024543;28;20480;-63
2021/01/17 12:28:38;;;;;;;15.52;6.72;;;2.80;99.90;;;;;;5042239;28;20044;-62
2021/01/17 12:31:12;;;;;;;16.85;6.22;;;2.80;99.90;;;;;;5039644;28;20041;-62
2021/01/17 12:33:56;;;;;;;19.23;7.72;;;2.80;99.90;;;;;;5037812;28;20096;-63
2021/01/17 12:36:24;;;;;;;16.08;6.50;;;2.80;99.90;;;;;;5031997;28;20124;-63
2021/01/17 12:42:49;;;;;;;14.90;5.85;;;2.80;99.90;;;;;;5039218;28;20113;-62
2021/01/17 12:45:23;;;;;;;19.52;7.30;;;2.90;99.90;;;;;;5050640;28;20071;-63
2021/01/17 12:47:59;;;;;;;16.20;7.20;;;2.90;99.90;;;;;;5054768;28;20041;-62
2021/01/17 12:50:54;;;;;;;15.65;6.60;;;2.90;99.90;;;;;;5050609;28;20135;-63
2021/01/17 12:53:21;;;;;;;17.65;6.82;;;2.90;99.90;;;;;;5027896;28;20041;-63
2021/01/17 12:56:00;;;;;;;19.30;7.78;;;3.00;99.90;;;;;;5039927;28;20116;-63
2021/01/17 13:02:49;;;;;;;17.65;6.88;;;3.10;99.90;;;;;;5040352;28;20436;-63
2021/01/17 13:05:34;;;;;;;15.38;6.32;;;3.10;99.90;;;;;;5040102;28;20479;-63
2021/01/17 13:12:48;;;;;;;16.40;6.20;;;3.20;99.90;;;;;;5034307;28;20125;-62
2021/01/17 13:15:53;;;;;;;11.13;5.35;;;3.20;99.90;;;;;;5066589;28;20058;-63
2021/01/17 13:18:25;;;;;;;15.63;6.28;;;3.20;99.90;;;;;;5041394;28;20060;-62
2021/01/17 13:20:52;;;;;;;17.33;6.55;;;3.30;99.90;;;;;;5040994;28;20040;-62
2021/01/17 13:27:53;;;;;;;16.67;6.25;;;3.40;99.90;;;;;;5074049;28;20050;-62
2021/01/17 13:30:31;;;;;;;13.48;5.68;;;3.40;99.90;;;;;;5034879;28;20037;-63
2021/01/17 13:33:04;;;;;;;15.40;7.05;;;3.50;99.90;;;;;;5067552;28;20404;-62
2021/01/17 13:35:51;;;;;;;15.23;5.63;;;3.50;99.90;;;;;;5034242;28;20049;-63
2021/01/17 13:38:25;;;;;;;13.57;6.30;;;3.50;99.90;;;;;;5036090;28;20041;-62
2021/01/17 13:44:31;;;;;;;17.80;6.18;;;3.60;99.90;;;;;;5055294;28;20055;-62
2021/01/17 13:51:09;;;;;;;11.68;4.63;;;3.70;99.90;;;;;;5039838;28;20036;-63
2021/01/17 13:53:48;;;;;;;15.23;4.65;;;3.80;99.90;;;;;;5052480;28;20048;-63
2021/01/17 13:56:20;;;;;;;11.57;5.03;;;3.80;99.90;;;;;;5035361;28;20037;-63
2021/01/17 13:59:14;;;;;;;14.23;5.75;;;3.90;99.90;;;;;;5065187;28;20044;-63
2021/01/17 14:01:41;;;;;;;11.13;4.05;;;3.90;99.90;;;;;;5058774;28;20407;-63
2021/01/17 14:11:40;;;;;;;8.45;3.75;;;3.90;99.90;;;;;;5014845;28;20042;-63
2021/01/17 14:21:47;;;;;;;10.52;4.05;;;3.90;99.90;;;;;;5033055;28;20045;-62
2021/01/17 14:28:39;;;;;;;9.85;4.20;;;4.10;99.90;;;;;;5034450;28;20109;-61
2021/01/17 14:31:12;;;;;;;21.40;5.90;;;4.10;99.90;;;;;;5029092;28;20414;-61
2021/01/17 14:33:51;;;;;;;13.85;5.78;;;4.20;99.90;;;;;;5013614;28;20397;-61
2021/01/17 14:36:19;;;;;;;10.43;4.47;;;4.30;99.90;;;;;;5013496;28;20048;-61
2021/01/17 14:38:45;;;;;;;19.42;6.72;;;4.30;99.90;;;;;;5050156;28;20061;-62
2021/01/17 14:41:22;;;;;;;18.48;7.22;;;4.30;99.90;;;;;;5033027;28;20073;-63
2021/01/17 14:43:56;;;;;;;17.77;5.63;;;4.50;99.90;;;;;;5032890;28;20396;-63
2021/01/17 14:46:44;;;;;;;;;;;4.60;99.90;;;;;;5034068;28;20057;-63
2021/01/17 14:49:18;;;;;;;9.40;3.17;;;4.70;99.90;;;;;;5035177;28;19920;-62
2021/01/17 14:51:45;;;;;;;11.48;3.20;;;4.80;99.90;;;;;;5037787;28;20048;-62
2021/01/17 14:54:18;;;;;;;11.60;2.85;;;4.80;99.90;;;;;;5050044;28;20167;-62
2021/01/17 14:56:48;;;;;;;14.13;3.37;;;4.90;99.90;;;;;;5020730;28;20373;-62
2021/01/17 14:59:29;;;;;;;22.88;5.55;;;4.90;99.90;;;;;;5050231;28;20132;-62
2021/01/17 15:02:04;;;;;;;13.75;3.20;;;4.90;99.90;;;;;;5017647;28;20048;-62
2021/01/17 15:04:32;;;;;;;10.80;2.30;;;5.00;99.90;;;;;;5048435;28;20135;-62
2021/01/17 15:06:59;;;;;;;14.48;2.83;;;5.10;99.90;;;;;;5039258;28;20083;-63
2021/01/17 15:09:26;;;;;;;13.02;2.58;;;5.10;99.90;;;;;;5052943;28;20051;-62
2021/01/17 15:12:06;;;;;;;19.33;3.67;;;5.10;99.90;;;;;;5058661;28;20072;-62
2021/01/17 15:14:50;;;;;;;15.60;2.80;;;5.10;99.90;;;;;;5057832;28;20047;-62
2021/01/17 15:21:05;;;;;;;16.15;2.00;;;5.10;99.90;;;;;;5054496;28;20086;-62
2021/01/17 15:23:55;;;;;;;11.73;2.47;;;5.10;99.90;;;;;;5048381;28;20051;-62
2021/01/17 15:26:34;;;;;;;8.77;2.00;;;5.10;99.90;;;;;;5047655;28;20037;-62
2021/01/17 15:29:33;;;;;;;12.02;3.00;;;5.10;99.90;;;;;;5032942;28;20062;-63
2021/01/17 15:32:02;;;;;;;13.98;2.47;;;5.10;99.90;;;;;;5056351;28;20072;-62
2021/01/17 15:34:30;;;;;;;13.82;2.78;;;5.10;99.90;;;;;;5056613;28;20475;-62
2021/01/17 15:37:30;;;;;;;12.45;3.10;;;5.10;99.90;;;;;;5037294;28;20404;-63
2021/01/17 15:40:20;;;;;;;11.57;2.13;;;5.10;99.90;;;;;;5069204;28;20048;-62
2021/01/17 15:42:54;;;;;;;21.02;3.80;;;5.10;99.90;;;;;;5043736;28;20047;-62
2021/01/17 15:48:58;;;;;;;19.02;4.70;;;5.30;99.90;;;;;;5069956;28;20036;-62
2021/01/17 15:51:43;;;;;;;22.80;4.93;;;5.30;99.90;;;;;;5069756;28;20055;-62
2021/01/17 15:54:14;;;;;;;17.63;2.80;;;5.20;99.90;;;;;;5038885;28;20041;-62
2021/01/17 15:56:57;;;;;;;12.65;3.17;;;5.40;99.90;;;;;;5072742;28;20444;-63
2021/01/17 15:59:37;;;;;;;10.82;2.17;;;5.30;99.90;;;;;;5061533;28;20436;-63
2021/01/17 16:02:06;;;;;;;32.05;3.67;;;5.40;99.90;;;;;;5056339;28;20043;-63
2021/01/17 16:04:47;;;;;;;17.52;3.38;;;5.40;99.90;;;;;;5072540;28;20051;-64
2021/01/17 16:07:13;;;;;;;17.15;2.22;;;5.30;99.90;;;;;;5036225;28;20057;-64
2021/01/17 16:09:45;;;;;;;12.80;2.25;;;5.30;99.90;;;;;;5071814;28;20044;-63
2021/01/17 16:12:12;;;;;;;8.88;2.25;;;5.40;99.90;;;;;;5061089;28;20048;-65
2021/01/17 16:14:48;;;;;;;15.68;2.58;;;5.40;99.90;;;;;;5074208;28;20047;-63
2021/01/17 16:17:17;;;;;;;22.83;3.35;;;5.50;99.90;;;;;;5064013;28;20121;-64
2021/01/17 16:19:58;;;;;;;26.27;3.10;;;5.50;99.90;;;;;;5042821;28;20049;-64
2021/01/17 16:22:29;;;;;;;10.93;2.03;;;5.50;99.90;;;;;;5065166;28;20060;-64
2021/01/17 16:24:55;;;;;;;11.88;1.80;;;5.50;99.90;;;;;;5075590;28;20040;-64
2021/01/17 16:27:29;;;;;;;15.60;2.55;;;5.50;99.90;;;;;;5059128;28;20506;-64
2021/01/17 16:29:55;;;;;;;;;;;5.50;99.90;;;;;;5045202;28;20040;-64
2021/01/17 16:36:33;;;;;;;19.75;7.28;;;5.50;99.90;;;;;;5063666;28;20035;-63
2021/01/17 16:39:43;;;;;;;29.08;10.20;;;5.50;99.90;;;;;;5075203;28;20102;-64
2021/01/17 16:42:14;;;;;;;27.92;6.85;;;5.50;99.90;;;;;;5059529;28;20069;-64
2021/01/17 16:44:47;;;;;;;28.55;8.25;;;5.60;99.90;;;;;;5074502;28;20048;-64
2021/01/17 16:47:47;;;;;;;42.35;9.55;;;5.60;99.90;;;;;;5074895;28;20052;-64
2021/01/17 16:57:36;;;;;;;23.63;5.63;;;5.60;99.90;;;;;;5073992;28;20070;-64
2021/01/17 17:00:32;;;;;;;42.53;10.38;;;5.60;99.90;;;;;;5072931;28;20040;-64
2021/01/17 17:06:44;;;;;;;23.83;6.05;;;5.60;99.90;;;;;;5043639;28;20031;-64
2021/01/17 17:09:46;;;;;;;45.25;10.85;;;5.50;99.90;;;;;;5062046;28;20053;-64
2021/01/17 17:19:52;;;;;;;24.13;4.47;;;5.50;99.90;;;;;;5054511;28;20036;-64
2021/01/17 17:26:23;;;;;;;15.13;4.50;;;5.40;99.90;;;;;;5067383;28;20036;-64
2021/01/17 17:28:53;;;;;;;25.42;5.38;;;5.30;99.90;;;;;;5056787;28;20520;-64
2021/01/17 17:31:25;;;;;;;19.20;4.05;;;5.30;99.90;;;;;;5058039;28;20047;-64
2021/01/17 17:33:53;;;;;;;15.57;3.85;;;5.20;99.90;;;;;;5068598;28;20075;-64
2021/01/17 17:36:22;;;;;;;15.00;2.75;;;5.20;99.90;;;;;;5063111;28;20052;-64
2021/01/17 17:38:51;;;;;;;22.52;5.05;;;5.00;99.90;;;;;;5058650;28;20434;-64
2021/01/17 17:41:44;;;;;;;16.70;4.72;;;5.10;99.90;;;;;;5050361;28;20553;-64
2021/01/17 17:44:20;;;;;;;15.45;4.18;;;5.00;99.90;;;;;;5039485;28;20041;-64
2021/01/17 17:47:08;;;;;;;21.50;4.85;;;5.00;99.90;;;;;;5071250;28;20055;-64
2021/01/17 17:49:35;;;;;;;13.90;3.67;;;4.90;99.90;;;;;;5053665;28;20495;-64
2021/01/17 17:52:06;;;;;;;22.73;4.03;;;4.80;99.90;;;;;;5053574;28;20438;-64
2021/01/17 17:54:40;;;;;;;14.38;4.07;;;4.80;99.90;;;;;;5059333;28;20078;-64
2021/01/17 17:57:06;;;;;;;16.83;3.47;;;4.70;99.90;;;;;;5045062;28;20040;-64
2021/01/17 18:04:05;;;;;;;6.13;2.20;;;4.60;99.90;;;;;;5068190;28;20102;-63
2021/01/17 18:06:45;;;;;;;7.97;1.98;;;4.50;99.90;;;;;;5073064;28;20044;-64
2021/01/17 18:09:13;;;;;;;7.20;1.75;;;4.40;99.90;;;;;;5036819;28;20067;-64
2021/01/17 18:12:10;;;;;;;16.08;1.85;;;4.40;99.90;;;;;;5072517;28;20080;-64
2021/01/17 18:14:36;;;;;;;13.43;2.83;;;4.30;99.90;;;;;;5068615;28;20045;-64
2021/01/17 18:17:08;;;;;;;16.27;4.07;;;4.30;99.90;;;;;;5053540;28;20121;-64
2021/01/17 18:19:40;;;;;;;11.05;2.70;;;4.40;99.90;;;;;;5057438;28;20044;-64
2021/01/17 18:26:36;;;;;;;11.95;3.08;;;4.30;99.90;;;;;;5058850;28;20035;-64
2021/01/17 18:29:05;;;;;;;14.50;2.40;;;4.30;99.90;;;;;;5053253;28;20051;-64
2021/01/17 18:31:42;;;;;;;16.75;3.25;;;4.30;99.90;;;;;;5064863;28;20048;-64
2021/01/17 18:34:38;;;;;;;12.75;2.17;;;4.30;99.90;;;;;;5061201;28;20041;-64
2021/01/17 18:41:38;;;;;;;10.13;2.10;;;4.20;99.90;;;;;;5048642;28;20032;-64
2021/01/17 18:44:11;;;;;;;9.55;1.95;;;4.20;99.90;;;;;;5062496;28;20041;-64
2021/01/17 18:47:07;;;;;;;16.80;2.47;;;4.20;99.90;;;;;;5048749;28;20122;-64
2021/01/17 18:49:40;;;;;;;8.25;1.95;;;4.20;99.90;;;;;;5057150;28;20041;-64
2021/01/17 18:52:07;;;;;;;18.98;2.72;;;4.20;99.90;;;;;;5037404;28;20045;-64
2021/01/17 18:54:48;;;;;;;13.75;2.53;;;4.10;99.90;;;;;;5054604;28;20066;-64
2021/01/17 19:01:35;;;;;;;12.60;2.33;;;4.10;99.90;;;;;;5048424;28;20178;-64
2021/01/17 19:04:06;;;;;;;10.52;1.60;;;4.10;99.90;;;;;;5065653;28;20116;-64
2021/01/17 19:06:34;;;;;;;10.52;1.98;;;4.10;99.90;;;;;;5057367;28;20044;-64
2021/01/17 19:09:09;;;;;;;13.20;1.83;;;4.10;99.90;;;;;;5052643;28;20400;-64
2021/01/17 19:12:21;;;;;;;14.80;2.15;;;4.00;99.90;;;;;;5049458;28;20045;-65
2021/01/17 19:14:53;;;;;;;7.85;2.15;;;4.10;99.90;;;;;;5069111;28;20118;-64
2021/01/17 19:17:39;;;;;;;10.60;2.17;;;4.00;99.90;;;;;;5062810;28;20475;-64
2021/01/17 19:20:23;;;;;;;11.82;1.80;;;4.00;99.90;;;;;;5068847;28;20067;-64
2021/01/17 19:26:54;;;;;;;18.30;1.80;;;4.00;99.90;;;;;;5070724;28;20028;-64
2021/01/17 19:29:36;;;;;;;7.80;1.65;;;4.00;99.90;;;;;;5066931;28;20047;-64
2021/01/17 19:32:23;;;;;;;13.82;2.15;;;4.00;99.90;;;;;;5059217;28;20052;-64
2021/01/17 19:39:23;;;;;;;8.85;1.50;;;3.90;99.90;;;;;;5044146;28;20075;-64
2021/01/17 19:41:50;;;;;;;17.20;2.15;;;3.90;99.90;;;;;;5056977;28;20048;-64
2021/01/17 19:44:17;;;;;;;12.80;2.50;;;3.90;99.90;;;;;;5056110;28;20503;-64
2021/01/17 19:47:12;;;;;;;17.42;3.15;;;3.90;99.90;;;;;;5038807;28;20045;-64
2021/01/17 19:49:59;;;;;;;18.77;2.05;;;3.80;99.90;;;;;;5075082;28;20045;-64
2021/01/17 19:52:43;;;;;;;6.80;1.70;;;3.80;99.90;;;;;;5040846;28;20049;-64
2021/01/17 19:59:24;;;;;;;12.95;1.88;;;3.80;99.90;;;;;;5058466;28;20404;-64
2021/01/17 20:02:20;;;;;;;3.97;1.42;;;3.80;99.90;;;;;;5036382;28;20038;-64
2021/01/17 20:04:56;;;;;;;9.43;1.75;;;3.80;99.90;;;;;;5044514;28;20050;-64
2021/01/17 20:07:24;;;;;;;7.20;1.70;;;3.80;99.90;;;;;;5074648;28;20052;-65
2021/01/17 20:09:53;;;;;;;13.82;2.55;;;3.80;99.90;;;;;;5058797;28;20182;-64
2021/01/17 20:16:33;;;;;;;7.35;1.30;;;3.70;99.90;;;;;;5063695;28;20387;-64
2021/01/17 20:19:09;;;;;;;7.43;2.72;;;3.70;99.90;;;;;;5067420;28;20048;-64
2021/01/17 20:22:06;;;;;;;8.63;1.65;;;3.70;99.90;;;;;;5075390;28;20047;-64
2021/01/17 20:24:57;;;;;;;12.85;1.85;;;3.70;99.90;;;;;;5042884;28;20051;-64
2021/01/17 20:31:33;;;;;;;13.05;1.85;;;3.60;99.90;;;;;;5057813;28;20549;-64